Historyczne dane pomiarowe

Dodano dane terminowe – wersja testowa.

Dane z okresu 1951-2019

Wersja bazy: 1.34 [2019-03-16, lista zmian], aktualizacja planowana na 2019-04-15

Dane meteo z obszaru Polski uzyskane na podstawie danych udostępnionych przez Instytut Meteorologii i Gospodarki Wodnej – Państwowy Instytut Badawczy.

 

Wybierz Datę:    

       

TemperaturaWilgotnośćWiatrCiśnienieOpadyŚniegCzas trwania zjawisk
 Stacja t tx tn tng RH VA  wxwx mslp ppp RRR   cm mm wxwxwxwxwxwxwx
2010-02-25 3.4 12.5 -0.4 -2.4 89.3- 3.0 1.0---- 0.0-- 4---------
2010-02-26 5.2 8.8 -0.9 -4.0 74.8- 7.3 3.0---- 2.5------------
2010-02-27 4.3 8.3 2.2 -4.2 69.0- 3.3 3.0---- 0.0------------
2010-02-28 5.9 10.8 0.0 -4.8 57.8- 6.3 3.3---- 0.1------------
2010-03-01 6.5 9.9 4.3 2.6 58.3- 3.7 6.0---- 0.0------------
2010-03-02 2.1 6.3 -0.9 -5.5 69.3- 4.3 2.3---- 0.0------------
2010-03-03 0.7 4.6 -1.4 -8.0 70.8- 3.3 2.3---- 0.0------------
2010-03-04 -2.3 2.6 -5.5-10.7 79.5- 4.0 0.7---- 0.2------------
2010-03-05 -4.0 -0.5 -6.1 -9.6 82.0- 5.7 2.0---- 0.1-- 1---------
2010-03-06 -6.3 -1.1-10.5-14.7 80.5- 3.7 1.7---- 0.0-- 1---------
2010-03-07 -3.2 0.2 -5.4 -9.7 71.3- 5.7 2.0---- 0.6------------
2010-03-08 -4.9 -0.8 -8.3-13.8 86.3- 5.7 1.0---- 0.1-- 2---------
2010-03-09 -6.6 -0.9-10.6-15.1 77.8- 0.7 1.0---- 0.0------------
2010-03-10 -4.9 2.8-10.5-14.8 75.0- 1.3 1.3---- 0.0------------
2010-03-11 -2.3 0.5 -4.5 -9.2 73.0- 7.3 1.0---- 0.0------------
2010-03-12 -0.7 2.9 -3.9 -6.0 78.0- 8.0 2.0---- 1.3------------
2010-03-13 1.8 3.5 0.5 -0.3 83.0- 7.7 3.3---- 4.0------------
2010-03-14 3.7 5.9 1.5 0.6 79.5- 7.3 5.3---- 2.6------------
2010-03-15 0.4 4.4 -2.2 -4.7 74.8- 6.7 3.3---- 1.6-- 4---------
2010-03-16 0.5 4.0 -1.4 -2.3 80.3- 6.3 2.0---- 0.3-- 3---------
2010-03-17 2.6 5.8 -0.8 -3.0 79.5- 7.3 2.3---- 0.0------------
2010-03-18 5.4 12.9 0.6 -4.5 74.5- 0.7 2.0---- 0.0------------
2010-03-19 7.4 15.5 -1.0 -5.5 60.8- 3.0 2.3---- 0.0------------
2010-03-20 7.9 15.4 1.5 -3.0 74.3- 4.3 1.3---- 0.0------------
2010-03-21 12.6 16.4 9.5 3.6 73.5- 7.3 3.0---- 0.5------------
2010-03-22 6.8 13.4 3.2 -2.9 82.0- 1.3 0.7---- 0.0------------
2010-03-23 6.4 16.4 -1.9 -6.0 76.8- 3.0 2.3---- 0.0------------
2010-03-24 7.1 16.5 -1.3 -5.0 74.0- 4.0 2.3---- 0.0------------
2010-03-25 12.1 20.0 4.4 0.7 67.0- 3.0 2.7---- 0.0------------
2010-03-26 15.3 21.0 12.2 7.5 57.0- 1.0 2.0---- 0.7------------
219.1 ms

 

Źródłem pochodzenia danych jest Instytut Meteorologii i Gospodarki Wodnej – Państwowy Instytut Badawczy. Dane Instytutu Meteorologii i Gospodarki Wodnej – Państwowego Instytutu Badawczego zostały przetworzone.

Dane źródłowe można odnaleźć na stronie https://dane.imgw.pl